aviador You're here:

LFRH Decoded Metar

LORIENT in FRANCE
Report Time2017-12-18 08:30:00
UTC Time2017-12-18 09:00:13
Flight Rules ifr IFR
Wind340° at 05 kt
W.Decomp.*RWY 02: 3.9 kt HW 3.1 kt LCW
RWY 07: 0.2 kt HW 5 kt LCW
W.Rank340° ranks 22
Current wind is below 340° avg. (5.8)
Visibility9999 m
Phenomena:N/A
Clouds:Broken 008 Hf
Overcast 017 Hf
Ceiling800 ft
Temp11°C (ISA -4)
Dew Point11°C (100% RH)
AAT9.5°C
QNH1027 hPa
Density Alt-597 ft
Elevation144 ft
Report Wrong Elevation
Raw Report
LFRH 180830Z AUTO 34005KT 280V030 9999 BKN008 OVC017 11/11 Q1027
NOSIG=

Extra information for LFRH:More info

Metar Taf Metar & Taf Last 4 Metars F.Rules Stats Wind Profile Meteogram Temp Stats Airport Information Weather charts Add Link Nearby VenuesMetar ALERT Operation Metar Decoded Social comments